Time;durP1;ratioP1;P1;durP2;ratioP2;P2;SDS_P1;SDS_P2;PMS_P1;PMS_P2;Temp;Humidity;BMP_temperature;BMP_pressure;BME280_temperature;BME280_humidity;BME280_pressure;Samples;Min_cycle;Max_cycle;Signal;HPM_P1;HPM_P2
2023/07/26 00:00:59;;;;;;;3.72;1.88;;;17.20;99.90;;;;;;5068613;28;20474;-78
2023/07/26 00:03:24;;;;;;;3.85;2.13;;;17.10;99.90;;;;;;5068148;28;20483;-78
2023/07/26 00:05:50;;;;;;;5.60;1.98;;;17.10;99.90;;;;;;5068149;28;20056;-78
2023/07/26 00:08:16;;;;;;;3.60;1.80;;;17.20;99.90;;;;;;5059068;28;20070;-80
2023/07/26 00:10:48;;;;;;;3.67;2.05;;;17.20;99.90;;;;;;5069213;28;20021;-77
2023/07/26 00:13:17;;;;;;;3.53;2.22;;;17.10;99.90;;;;;;5068191;28;20062;-76
2023/07/26 00:15:43;;;;;;;4.53;2.15;;;17.10;99.90;;;;;;5068214;28;20021;-78
2023/07/26 00:18:09;;;;;;;6.38;2.05;;;17.10;99.90;;;;;;5071046;28;20028;-77
2023/07/26 00:20:35;;;;;;;4.82;2.13;;;17.10;99.90;;;;;;5061623;28;20026;-73
2023/07/26 00:23:00;;;;;;;7.13;2.28;;;17.10;99.90;;;;;;5069351;28;20040;-79
2023/07/26 00:25:26;;;;;;;3.30;2.20;;;17.10;99.90;;;;;;5068519;28;20033;-80
2023/07/26 00:27:51;;;;;;;6.97;2.10;;;17.10;99.90;;;;;;5056659;28;20074;-78
2023/07/26 00:30:17;;;;;;;6.53;2.15;;;17.10;99.90;;;;;;5068376;28;20105;-81
2023/07/26 00:32:43;;;;;;;4.30;2.10;;;17.10;99.90;;;;;;5070297;28;20016;-74
2023/07/26 00:35:20;;;;;;;6.80;2.03;;;17.10;99.90;;;;;;5068029;28;20033;-74
2023/07/26 00:37:46;;;;;;;5.13;2.00;;;17.10;99.90;;;;;;5049773;28;20564;-78
2023/07/26 00:40:12;;;;;;;4.55;2.13;;;17.10;99.90;;;;;;5067051;28;20487;-77
2023/07/26 00:42:38;;;;;;;4.80;1.98;;;17.10;99.90;;;;;;5071945;28;20025;-77
2023/07/26 00:45:04;;;;;;;4.53;2.00;;;17.10;99.90;;;;;;5065930;28;20029;-78
2023/07/26 00:47:30;;;;;;;5.20;2.13;;;17.10;99.90;;;;;;5072152;28;20021;-78
2023/07/26 00:49:55;;;;;;;5.47;2.80;;;17.10;99.90;;;;;;5066853;28;20035;-79
2023/07/26 00:52:23;;;;;;;4.65;2.10;;;17.10;99.90;;;;;;5070515;28;20032;-77
2023/07/26 00:54:49;;;;;;;5.65;2.80;;;17.10;99.90;;;;;;5064741;28;20117;-78
2023/07/26 00:57:14;;;;;;;3.22;1.88;;;17.10;99.90;;;;;;5069081;28;20064;-77
2023/07/26 00:59:40;;;;;;;7.18;2.22;;;17.00;99.90;;;;;;5064712;28;20053;-77
2023/07/26 01:02:06;;;;;;;5.20;1.90;;;17.00;99.90;;;;;;5068442;28;20090;-78
2023/07/26 01:04:31;;;;;;;4.20;2.25;;;17.00;99.90;;;;;;5064716;28;20053;-77
2023/07/26 01:07:15;;;;;;;5.57;1.88;;;17.00;99.90;;;;;;5068731;28;20020;-77
2023/07/26 01:10:11;;;;;;;6.47;2.15;;;17.00;99.90;;;;;;5064421;28;20017;-77
2023/07/26 01:12:47;;;;;;;5.80;2.13;;;17.00;99.90;;;;;;5065119;28;20025;-78
2023/07/26 01:15:15;;;;;;;6.20;2.00;;;17.00;99.90;;;;;;5054170;28;20497;-76
2023/07/26 01:17:40;;;;;;;4.40;1.90;;;17.00;99.90;;;;;;5064871;28;20071;-78
2023/07/26 01:20:06;;;;;;;3.90;2.10;;;17.00;99.90;;;;;;5067503;28;20025;-77
2023/07/26 01:22:32;;;;;;;8.50;1.90;;;17.00;99.90;;;;;;5048552;28;20064;-78
2023/07/26 01:24:58;;;;;;;2.63;2.15;;;17.00;99.90;;;;;;5070667;28;20055;-78
2023/07/26 01:27:24;;;;;;;2.92;1.80;;;17.00;99.90;;;;;;5065394;28;20025;-79
2023/07/26 01:29:54;;;;;;;4.80;2.13;;;17.00;99.90;;;;;;5070471;28;20032;-78
2023/07/26 01:32:22;;;;;;;5.53;2.00;;;17.00;99.90;;;;;;5063326;28;20028;-78
2023/07/26 01:34:48;;;;;;;4.68;2.55;;;17.00;99.90;;;;;;5069911;28;20035;-79
2023/07/26 01:37:14;;;;;;;2.97;1.92;;;16.90;99.90;;;;;;5065027;28;20037;-79
2023/07/26 01:39:40;;;;;;;4.10;2.13;;;16.90;99.90;;;;;;5069953;28;20032;-77
2023/07/26 01:42:06;;;;;;;5.00;2.08;;;16.90;99.90;;;;;;5065319;28;20037;-76
2023/07/26 01:44:38;;;;;;;6.63;2.22;;;16.90;99.90;;;;;;5069901;28;20063;-76
2023/07/26 01:47:04;;;;;;;4.50;1.90;;;16.90;99.90;;;;;;5067200;28;20023;-77
2023/07/26 01:49:30;;;;;;;4.22;2.10;;;16.90;99.90;;;;;;5069923;28;20020;-78
2023/07/26 01:51:55;;;;;;;7.10;2.10;;;16.90;99.90;;;;;;5066742;28;20071;-78
2023/07/26 01:54:21;;;;;;;5.28;1.90;;;16.90;99.90;;;;;;5068329;28;20331;-79
2023/07/26 01:56:47;;;;;;;3.72;1.80;;;16.90;99.90;;;;;;5066240;28;20033;-79
2023/07/26 01:59:13;;;;;;;4.32;1.95;;;16.90;99.90;;;;;;5070351;28;20031;-79
2023/07/26 02:01:39;;;;;;;3.67;1.83;;;16.90;99.90;;;;;;5067147;28;20025;-79
2023/07/26 02:04:04;;;;;;;3.33;2.13;;;16.90;99.90;;;;;;5060512;28;20047;-78
2023/07/26 02:06:30;;;;;;;5.18;1.90;;;16.80;99.90;;;;;;5061528;28;20551;-78
2023/07/26 02:08:56;;;;;;;6.07;1.92;;;16.80;99.90;;;;;;5070113;28;20016;-79
2023/07/26 02:11:21;;;;;;;9.05;2.90;;;16.80;99.90;;;;;;5067239;28;20025;-78
2023/07/26 02:13:47;;;;;;;2.53;1.80;;;16.90;99.90;;;;;;5070237;28;20024;-78
2023/07/26 02:16:12;;;;;;;5.05;2.00;;;16.90;99.90;;;;;;5070682;28;20020;-77
2023/07/26 02:18:38;;;;;;;3.03;2.00;;;16.90;99.90;;;;;;5072463;28;20059;-78
2023/07/26 02:21:04;;;;;;;6.38;2.28;;;16.90;99.90;;;;;;5062954;28;20025;-77
2023/07/26 02:23:30;;;;;;;6.05;2.58;;;16.90;99.90;;;;;;5071653;28;20452;-78
2023/07/26 02:25:55;;;;;;;5.05;2.00;;;16.80;99.90;;;;;;5069619;28;20029;-78
2023/07/26 02:28:21;;;;;;;4.03;2.15;;;16.80;99.90;;;;;;5073477;28;20028;-78
2023/07/26 02:30:47;;;;;;;5.35;2.25;;;16.80;99.90;;;;;;5069160;28;20078;-79
2023/07/26 02:33:12;;;;;;;6.13;2.20;;;16.80;99.90;;;;;;5072354;28;20032;-78
2023/07/26 02:35:38;;;;;;;4.97;2.35;;;16.80;99.90;;;;;;5070612;28;20024;-79
2023/07/26 02:38:03;;;;;;;4.22;2.00;;;16.80;99.90;;;;;;5074373;28;20021;-78
2023/07/26 02:40:29;;;;;;;6.25;2.10;;;16.80;99.90;;;;;;5071581;28;20134;-79
2023/07/26 02:42:55;;;;;;;4.50;1.92;;;16.80;99.90;;;;;;5074729;28;20031;-78
2023/07/26 02:45:21;;;;;;;2.22;1.95;;;16.80;99.90;;;;;;5071420;28;20100;-77
2023/07/26 02:47:46;;;;;;;4.32;1.80;;;16.70;99.90;;;;;;5074832;28;20105;-78
2023/07/26 02:50:12;;;;;;;4.57;1.95;;;16.70;99.90;;;;;;5071537;28;20082;-77
2023/07/26 02:52:38;;;;;;;4.38;1.98;;;16.70;99.90;;;;;;5072687;28;20029;-78
2023/07/26 02:55:04;;;;;;;4.20;2.10;;;16.70;99.90;;;;;;5068597;28;20053;-78
2023/07/26 02:57:29;;;;;;;3.63;1.73;;;16.70;99.90;;;;;;5073276;28;20080;-78
2023/07/26 02:59:55;;;;;;;5.10;2.30;;;16.70;99.90;;;;;;5060091;28;20036;-79
2023/07/26 03:02:22;;;;;;;5.13;2.00;;;16.60;99.90;;;;;;5073237;28;20393;-79
2023/07/26 03:04:47;;;;;;;5.88;2.28;;;16.60;99.90;;;;;;5068128;28;20028;-79
2023/07/26 03:07:13;;;;;;;2.38;1.75;;;16.60;99.90;;;;;;5072010;28;20033;-76
2023/07/26 03:09:39;;;;;;;8.63;2.20;;;16.60;99.90;;;;;;5066538;28;20032;-79
2023/07/26 03:12:05;;;;;;;5.10;2.03;;;16.60;99.90;;;;;;5072556;28;20017;-79
2023/07/26 03:14:31;;;;;;;4.82;2.03;;;16.60;99.90;;;;;;5066933;28;20021;-78
2023/07/26 03:16:56;;;;;;;8.52;2.05;;;16.50;99.90;;;;;;5072717;28;20028;-79
2023/07/26 03:19:22;;;;;;;5.40;2.22;;;16.50;99.90;;;;;;5066233;28;20028;-78
2023/07/26 03:21:47;;;;;;;5.60;2.13;;;16.40;99.90;;;;;;5061281;28;20099;-78
2023/07/26 03:24:13;;;;;;;5.90;2.35;;;16.40;99.90;;;;;;5067531;28;20180;-77
2023/07/26 03:26:39;;;;;;;5.70;3.03;;;16.30;99.90;;;;;;5071656;28;20659;-79
2023/07/26 03:29:04;;;;;;;4.80;2.40;;;16.20;99.90;;;;;;5066684;28;20148;-80
2023/07/26 03:31:30;;;;;;;3.90;2.13;;;16.20;99.90;;;;;;5072626;28;20056;-78
2023/07/26 03:33:55;;;;;;;3.25;2.70;;;16.10;99.90;;;;;;5066967;28;20052;-78
2023/07/26 03:36:21;;;;;;;3.78;2.08;;;16.00;99.90;;;;;;5072297;28;20038;-79
2023/07/26 03:38:47;;;;;;;4.03;2.35;;;16.00;99.90;;;;;;5065590;28;20077;-78
2023/07/26 03:41:12;;;;;;;4.57;1.98;;;15.90;99.90;;;;;;5072422;28;20103;-78
2023/07/26 03:43:38;;;;;;;2.25;2.05;;;15.90;99.90;;;;;;5064918;28;20116;-78
2023/07/26 03:46:03;;;;;;;3.70;2.40;;;15.80;99.90;;;;;;5071372;28;20028;-78
2023/07/26 03:48:29;;;;;;;3.20;1.83;;;15.80;99.90;;;;;;5066069;28;20078;-77
2023/07/26 03:50:55;;;;;;;9.40;2.55;;;15.70;99.90;;;;;;5070535;28;20029;-79
2023/07/26 03:53:20;;;;;;;5.13;2.60;;;15.70;99.90;;;;;;5065747;28;20017;-78
2023/07/26 03:55:46;;;;;;;3.72;2.00;;;15.70;99.90;;;;;;5071717;28;20024;-79
2023/07/26 03:58:12;;;;;;;6.15;2.60;;;15.70;99.90;;;;;;5065668;28;20021;-78
2023/07/26 04:00:38;;;;;;;3.08;2.20;;;15.70;99.90;;;;;;5071803;28;20024;-78
2023/07/26 04:03:03;;;;;;;6.07;2.30;;;15.70;99.90;;;;;;5066128;28;20029;-78
2023/07/26 04:05:29;;;;;;;5.10;2.67;;;15.80;99.90;;;;;;5071810;28;20168;-78
2023/07/26 04:07:54;;;;;;;6.03;2.30;;;15.80;99.90;;;;;;5065320;28;20151;-80
2023/07/26 04:10:20;;;;;;;3.65;2.42;;;15.90;99.90;;;;;;5071492;28;20165;-78
2023/07/26 04:12:46;;;;;;;4.53;2.13;;;15.90;99.90;;;;;;5065430;28;20029;-78
2023/07/26 04:15:11;;;;;;;5.18;2.30;;;15.90;99.90;;;;;;5071323;28;20023;-79
2023/07/26 04:17:37;;;;;;;3.25;2.13;;;15.90;99.90;;;;;;5066265;28;20109;-78
2023/07/26 04:20:03;;;;;;;3.10;2.28;;;15.90;99.90;;;;;;5069076;28;20035;-78
2023/07/26 04:22:29;;;;;;;2.85;2.13;;;15.90;99.90;;;;;;5058766;28;20466;-78
2023/07/26 04:24:55;;;;;;;4.60;2.05;;;15.90;99.90;;;;;;5071327;28;20068;-78
2023/07/26 04:27:20;;;;;;;5.57;2.28;;;15.90;99.90;;;;;;5065980;28;20449;-78
2023/07/26 04:29:46;;;;;;;4.90;2.35;;;16.00;99.90;;;;;;5069950;28;20396;-79
2023/07/26 04:32:11;;;;;;;6.28;2.67;;;16.00;99.90;;;;;;5066720;28;20020;-79
2023/07/26 04:34:37;;;;;;;4.97;2.08;;;16.00;99.90;;;;;;5070396;28;20025;-79
2023/07/26 04:37:03;;;;;;;4.30;2.20;;;16.00;99.90;;;;;;5067017;28;20502;-79
2023/07/26 04:39:28;;;;;;;4.32;2.03;;;16.00;99.90;;;;;;5071793;28;20111;-79
2023/07/26 04:41:54;;;;;;;3.72;2.00;;;16.00;99.90;;;;;;5054292;28;20029;-78
2023/07/26 04:44:20;;;;;;;5.45;2.17;;;16.00;99.90;;;;;;5072052;28;20028;-78
2023/07/26 04:46:45;;;;;;;3.53;2.00;;;16.00;99.90;;;;;;5067452;28;20021;-77
2023/07/26 04:49:11;;;;;;;5.05;2.30;;;16.00;99.90;;;;;;5070712;28;20035;-78
2023/07/26 04:51:37;;;;;;;7.40;2.20;;;16.00;99.90;;;;;;5066717;28;20489;-78
2023/07/26 04:54:02;;;;;;;4.05;2.10;;;16.00;99.90;;;;;;5070296;28;20021;-79
2023/07/26 04:56:28;;;;;;;3.97;2.45;;;16.00;99.90;;;;;;5066144;28;20057;-78
2023/07/26 04:58:54;;;;;;;5.05;2.45;;;16.00;99.90;;;;;;5070916;28;20038;-78
2023/07/26 05:01:19;;;;;;;3.45;2.30;;;16.10;99.90;;;;;;5067041;28;20025;-79
2023/07/26 05:03:45;;;;;;;2.42;2.05;;;16.10;99.90;;;;;;5049027;28;20047;-78
2023/07/26 05:06:11;;;;;;;5.00;2.15;;;16.20;99.90;;;;;;5066882;28;20025;-77
2023/07/26 05:08:37;;;;;;;7.55;2.42;;;16.20;99.90;;;;;;5069751;28;20857;-78
2023/07/26 05:11:03;;;;;;;5.03;2.17;;;16.30;99.90;;;;;;5065344;28;20040;-78
2023/07/26 05:13:29;;;;;;;6.75;2.75;;;16.20;99.90;;;;;;5071105;28;20021;-78
2023/07/26 05:15:54;;;;;;;5.03;2.40;;;16.30;99.90;;;;;;5064272;28;20036;-77
2023/07/26 05:18:20;;;;;;;7.10;2.55;;;16.30;99.90;;;;;;5069212;28;20459;-78
2023/07/26 05:20:49;;;;;;;9.48;3.17;;;16.30;99.90;;;;;;5055596;28;20099;-78
2023/07/26 05:23:14;;;;;;;6.82;2.40;;;16.30;99.90;;;;;;5070482;28;20048;-78
2023/07/26 05:25:40;;;;;;;5.55;2.45;;;16.30;99.90;;;;;;5064640;28;20056;-78
2023/07/26 05:28:06;;;;;;;4.22;2.17;;;16.30;99.90;;;;;;5047555;28;20020;-78
2023/07/26 05:30:31;;;;;;;6.70;2.47;;;16.30;99.90;;;;;;5065147;28;20484;-78
2023/07/26 05:32:57;;;;;;;4.22;2.25;;;16.30;99.90;;;;;;5070604;28;20662;-78
2023/07/26 05:35:23;;;;;;;3.90;2.45;;;16.40;99.90;;;;;;5065929;28;20501;-78
2023/07/26 05:37:50;;;;;;;8.10;2.30;;;16.40;99.90;;;;;;5068888;28;20060;-78
2023/07/26 05:40:16;;;;;;;10.65;2.75;;;16.40;99.90;;;;;;5065968;28;20024;-78
2023/07/26 05:42:41;;;;;;;6.07;2.60;;;16.50;99.90;;;;;;5071418;28;20029;-78
2023/07/26 05:45:07;;;;;;;6.28;2.40;;;16.50;99.90;;;;;;5066202;28;20025;-77
2023/07/26 05:47:37;;;;;;;5.60;2.33;;;16.60;99.90;;;;;;5070622;28;20032;-78
2023/07/26 05:50:07;;;;;;;2.85;2.00;;;16.60;99.90;;;;;;5064379;28;20036;-78
2023/07/26 05:52:32;;;;;;;9.02;2.47;;;16.70;99.90;;;;;;5070253;28;20048;-77
2023/07/26 05:54:58;;;;;;;4.55;2.10;;;16.70;99.90;;;;;;5063855;28;20044;-78
2023/07/26 05:57:24;;;;;;;4.63;2.22;;;16.80;99.90;;;;;;5070402;28;20064;-78
2023/07/26 05:59:50;;;;;;;4.32;2.33;;;16.90;99.90;;;;;;5065157;28;20052;-79
2023/07/26 06:02:16;;;;;;;6.18;2.78;;;17.00;99.90;;;;;;5070435;28;20111;-79
2023/07/26 06:04:41;;;;;;;4.35;2.42;;;17.00;99.90;;;;;;5065778;28;20104;-79
2023/07/26 06:07:07;;;;;;;7.15;2.28;;;17.10;99.90;;;;;;5070787;28;20035;-80
2023/07/26 06:09:36;;;;;;;5.70;2.30;;;17.20;99.90;;;;;;5065972;28;20024;-78
2023/07/26 06:12:01;;;;;;;6.20;2.35;;;17.20;99.90;;;;;;5070433;28;20073;-79
2023/07/26 06:14:29;;;;;;;8.60;2.38;;;17.20;99.90;;;;;;5062275;28;20049;-79
2023/07/26 06:16:54;;;;;;;4.57;2.38;;;17.30;99.90;;;;;;5057693;28;20509;-79
2023/07/26 06:19:21;;;;;;;5.15;2.45;;;17.40;99.90;;;;;;5058661;28;20025;-80
2023/07/26 06:21:46;;;;;;;5.68;2.55;;;17.40;99.90;;;;;;5060334;28;20035;-79
2023/07/26 06:24:12;;;;;;;4.72;2.17;;;17.50;99.90;;;;;;5063280;28;20041;-78
2023/07/26 06:26:38;;;;;;;4.63;2.53;;;17.60;99.90;;;;;;5069223;28;20029;-79
2023/07/26 06:29:04;;;;;;;8.15;2.35;;;17.80;99.90;;;;;;5063519;28;20056;-78
2023/07/26 06:31:30;;;;;;;7.15;2.78;;;17.90;99.90;;;;;;5069589;28;20032;-78
2023/07/26 06:33:55;;;;;;;7.72;2.22;;;17.90;99.90;;;;;;5057562;28;20550;-78
2023/07/26 06:36:21;;;;;;;6.15;3.42;;;17.90;99.90;;;;;;5068774;28;20032;-79
2023/07/26 06:38:47;;;;;;;7.30;2.42;;;17.90;99.90;;;;;;5062978;28;20087;-80
2023/07/26 06:41:12;;;;;;;8.90;2.58;;;18.00;99.90;;;;;;5068345;28;20031;-80
2023/07/26 06:43:38;;;;;;;6.40;2.00;;;18.10;99.90;;;;;;5072733;28;20115;-79
2023/07/26 06:46:04;;;;;;;4.30;2.10;;;18.20;99.90;;;;;;5072666;28;20060;-78
2023/07/26 06:48:29;;;;;;;4.50;2.35;;;18.10;99.90;;;;;;5054777;28;20025;-78
2023/07/26 06:50:55;;;;;;;5.57;2.10;;;18.20;99.90;;;;;;5062298;28;20032;-78
2023/07/26 06:53:20;;;;;;;6.93;2.20;;;18.20;99.90;;;;;;5062112;28;20028;-77
2023/07/26 06:55:46;;;;;;;5.82;2.05;;;18.30;99.90;;;;;;5061826;28;20484;-77
2023/07/26 06:58:12;;;;;;;5.05;2.40;;;18.30;99.90;;;;;;5063206;28;20025;-78
2023/07/26 07:00:37;;;;;;;4.55;2.40;;;18.30;99.90;;;;;;5073270;28;20028;-77
2023/07/26 07:03:04;;;;;;;5.57;2.35;;;18.30;99.90;;;;;;5071985;28;20021;-78
2023/07/26 07:05:33;;;;;;;11.65;2.17;;;18.40;99.90;;;;;;5074874;28;20047;-78
2023/07/26 07:07:59;;;;;;;6.80;2.03;;;18.40;99.90;;;;;;5073882;28;20019;-77
2023/07/26 07:10:24;;;;;;;6.82;2.22;;;18.40;99.90;;;;;;5074109;28;20021;-77
2023/07/26 07:12:50;;;;;;;6.60;2.42;;;18.40;99.90;;;;;;5073732;28;20027;-78
2023/07/26 07:15:16;;;;;;;4.93;2.17;;;18.50;99.90;;;;;;5074913;28;20033;-78
2023/07/26 07:17:41;;;;;;;6.70;2.25;;;18.50;99.90;;;;;;5063764;28;20404;-78
2023/07/26 07:20:08;;;;;;;11.30;2.75;;;18.70;99.90;;;;;;5066446;28;20029;-79
2023/07/26 07:22:34;;;;;;;5.13;2.55;;;18.70;99.90;;;;;;5055162;28;20033;-77
2023/07/26 07:25:00;;;;;;;6.10;2.30;;;18.80;99.90;;;;;;5070060;28;20506;-78
2023/07/26 07:27:26;;;;;;;7.10;2.22;;;18.80;99.90;;;;;;5056521;28;21114;-78
2023/07/26 07:29:51;;;;;;;7.25;2.22;;;19.00;99.90;;;;;;5045725;28;20068;-77
2023/07/26 07:32:17;;;;;;;9.07;1.88;;;19.10;99.90;;;;;;5057059;28;20023;-77
2023/07/26 07:34:43;;;;;;;7.53;2.55;;;19.10;99.90;;;;;;5061256;28;20024;-78
2023/07/26 07:37:09;;;;;;;15.80;2.53;;;19.00;99.90;;;;;;5057654;28;20261;-77
2023/07/26 07:39:36;;;;;;;7.13;2.22;;;18.90;99.90;;;;;;5059152;28;20050;-78
2023/07/26 07:42:01;;;;;;;8.95;2.35;;;18.80;99.90;;;;;;5056921;28;20660;-78
2023/07/26 07:44:28;;;;;;;4.97;2.20;;;18.80;99.90;;;;;;5063028;28;20090;-76
2023/07/26 07:46:54;;;;;;;4.57;2.58;;;18.90;99.90;;;;;;5058388;28;20025;-78
2023/07/26 07:49:19;;;;;;;8.73;2.65;;;19.00;99.90;;;;;;5059095;28;20032;-76
2023/07/26 07:51:45;;;;;;;7.80;2.50;;;19.00;99.90;;;;;;5056108;28;20033;-77
2023/07/26 07:54:11;;;;;;;7.90;2.65;;;18.90;99.90;;;;;;5059882;28;20075;-77
2023/07/26 07:56:37;;;;;;;6.57;2.13;;;19.10;99.90;;;;;;5059275;28;20094;-77
2023/07/26 07:59:03;;;;;;;7.22;2.10;;;19.20;99.90;;;;;;5052955;28;20029;-77
2023/07/26 08:01:30;;;;;;;4.47;1.70;;;19.40;99.90;;;;;;5060711;28;20029;-77
2023/07/26 08:03:56;;;;;;;3.70;2.13;;;19.30;99.90;;;;;;5059444;28;20481;-77
2023/07/26 08:06:22;;;;;;;7.15;2.13;;;19.30;99.90;;;;;;5054253;28;20063;-77
2023/07/26 08:08:47;;;;;;;6.00;2.40;;;19.30;99.90;;;;;;5059863;28;20025;-77
2023/07/26 08:11:13;;;;;;;5.88;2.00;;;19.40;99.90;;;;;;5058207;28;20037;-78
2023/07/26 08:13:38;;;;;;;6.18;2.03;;;19.60;99.90;;;;;;5055805;28;20021;-78
2023/07/26 08:16:04;;;;;;;4.63;1.85;;;19.80;99.90;;;;;;5053387;28;20455;-77
2023/07/26 08:18:30;;;;;;;7.50;2.60;;;19.90;99.90;;;;;;5044683;28;20838;-80
2023/07/26 08:20:55;;;;;;;8.88;1.95;;;19.90;99.90;;;;;;5056169;28;20025;-77
2023/07/26 08:23:21;;;;;;;5.45;2.03;;;19.70;99.90;;;;;;5058805;28;20041;-79
2023/07/26 08:25:47;;;;;;;10.68;2.40;;;19.60;99.90;;;;;;5059328;28;20041;-78
2023/07/26 08:28:12;;;;;;;3.50;1.98;;;19.60;99.90;;;;;;5054240;28;20032;-78
2023/07/26 08:30:38;;;;;;;3.47;2.03;;;19.70;99.90;;;;;;5060700;28;20794;-78
2023/07/26 08:33:03;;;;;;;5.13;2.13;;;19.90;99.90;;;;;;5056421;28;20032;-80
2023/07/26 08:35:30;;;;;;;7.18;2.42;;;20.00;99.90;;;;;;5053518;28;20029;-78
2023/07/26 08:37:56;;;;;;;5.07;2.17;;;20.00;99.90;;;;;;5059637;28;20512;-76
2023/07/26 08:40:21;;;;;;;5.10;2.13;;;20.00;99.90;;;;;;5057079;28;20032;-78
2023/07/26 08:42:47;;;;;;;6.68;2.03;;;20.10;99.90;;;;;;5055241;28;20112;-78
2023/07/26 08:45:13;;;;;;;5.32;2.13;;;20.20;99.90;;;;;;5060276;28;20037;-80
2023/07/26 08:47:40;;;;;;;5.05;2.22;;;20.30;99.90;;;;;;5054979;28;20055;-77
2023/07/26 08:50:07;;;;;;;5.90;2.42;;;20.40;99.90;;;;;;5056628;28;20052;-77
2023/07/26 08:52:33;;;;;;;4.10;1.98;;;20.30;99.90;;;;;;5056749;28;20384;-78
2023/07/26 08:55:00;;;;;;;6.53;2.35;;;20.30;99.90;;;;;;5054944;28;20028;-77
2023/07/26 08:57:26;;;;;;;7.63;2.40;;;20.70;99.90;;;;;;5055299;28;20033;-78
2023/07/26 08:59:52;;;;;;;5.45;1.65;;;20.70;99.90;;;;;;5054117;28;20025;-78
2023/07/26 09:02:19;;;;;;;9.57;2.35;;;20.90;99.90;;;;;;5057189;28;20079;-76
2023/07/26 09:04:46;;;;;;;10.90;2.42;;;20.80;99.90;;;;;;5056973;28;20037;-77
2023/07/26 09:07:14;;;;;;;4.78;1.77;;;20.90;99.90;;;;;;5052411;28;20021;-78
2023/07/26 09:09:40;;;;;;;7.50;2.40;;;21.10;99.90;;;;;;5054205;28;20036;-77
2023/07/26 09:12:07;;;;;;;3.80;2.05;;;21.30;99.90;;;;;;5056592;28;20116;-77
2023/07/26 09:14:34;;;;;;;8.93;2.20;;;21.40;99.90;;;;;;5054279;28;20025;-76
2023/07/26 09:17:01;;;;;;;7.35;2.15;;;21.40;99.90;;;;;;5057272;28;20077;-78
2023/07/26 09:19:38;;;;;;;6.53;2.28;;;21.30;99.90;;;;;;5056417;28;20085;-78
2023/07/26 09:22:07;;;;;;;11.20;2.10;;;21.40;99.90;;;;;;5058120;28;20163;-78
2023/07/26 09:24:39;;;;;;;7.28;2.13;;;21.40;99.90;;;;;;5058425;28;20392;-79
2023/07/26 09:27:10;;;;;;;6.72;1.90;;;21.50;99.90;;;;;;5055085;28;20021;-79
2023/07/26 09:29:38;;;;;;;5.60;2.25;;;21.50;99.90;;;;;;5058113;28;20515;-79
2023/07/26 09:32:08;;;;;;;4.90;1.98;;;21.60;99.90;;;;;;5056176;28;20024;-78
2023/07/26 09:34:33;;;;;;;10.45;2.75;;;21.80;99.90;;;;;;5059189;28;20503;-76
2023/07/26 09:36:59;;;;;;;7.20;2.03;;;22.20;99.90;;;;;;5057451;28;20029;-78
2023/07/26 09:39:27;;;;;;;6.38;2.03;;;22.10;99.90;;;;;;5056764;28;20037;-79
2023/07/26 09:42:07;;;;;;;7.05;1.83;;;22.20;99.90;;;;;;5053898;28;20017;-76
2023/07/26 09:44:34;;;;;;;5.68;2.05;;;22.20;99.90;;;;;;5055273;28;20074;-77
2023/07/26 09:47:00;;;;;;;5.95;2.35;;;22.20;99.90;;;;;;5053804;28;20033;-74
2023/07/26 09:49:27;;;;;;;6.15;1.80;;;22.40;99.90;;;;;;5055077;28;20089;-76
2023/07/26 09:51:57;;;;;;;6.40;2.20;;;22.40;99.90;;;;;;5055596;28;20017;-77
2023/07/26 09:54:27;;;;;;;5.93;2.10;;;22.30;99.90;;;;;;5054120;28;20100;-76
2023/07/26 09:56:57;;;;;;;;;;;22.50;99.90;;;;;;5059739;28;20025;-77
2023/07/26 09:59:28;;;;;;;4.82;1.90;;;23.00;99.90;;;;;;5054526;28;20406;-78
2023/07/26 10:01:56;;;;;;;7.20;1.70;;;23.10;99.90;;;;;;5057263;28;20020;-75
2023/07/26 10:04:42;;;;;;;6.00;1.90;;;23.00;99.90;;;;;;5056457;28;20577;-76
2023/07/26 10:07:12;;;;;;;6.68;1.65;;;23.00;99.90;;;;;;5054368;28;20523;-74
2023/07/26 10:09:43;;;;;;;7.18;2.03;;;23.40;99.90;;;;;;5059956;28;20155;-76
2023/07/26 10:12:09;;;;;;;21.45;3.70;;;23.60;99.90;;;;;;5058410;28;20156;-77
2023/07/26 10:14:36;;;;;;;5.00;1.67;;;23.80;99.90;;;;;;5053851;28;20020;-73
2023/07/26 10:17:04;;;;;;;5.03;1.80;;;23.90;99.90;;;;;;5056716;28;20024;-77
2023/07/26 10:19:30;;;;;;;7.15;2.45;;;23.40;99.90;;;;;;5052940;28;20032;-78
2023/07/26 10:21:59;;;;;;;16.73;2.60;;;23.30;99.90;;;;;;5057588;28;20843;-76
2023/07/26 10:24:25;;;;;;;10.40;4.00;;;23.10;99.90;;;;;;5058303;28;20040;-79
2023/07/26 10:26:53;;;;;;;5.90;2.25;;;23.10;99.90;;;;;;5052883;28;20052;-78
2023/07/26 10:29:22;;;;;;;7.60;1.50;;;23.20;99.90;;;;;;5054571;28;20025;-77
2023/07/26 10:32:04;;;;;;;6.22;1.33;;;23.50;99.90;;;;;;5056568;28;20104;-78
2023/07/26 10:34:30;;;;;;;4.40;2.05;;;23.60;99.90;;;;;;5056723;28;20032;-77
2023/07/26 10:36:56;;;;;;;6.00;1.60;;;23.60;99.90;;;;;;5060951;28;20074;-74
2023/07/26 10:39:34;;;;;;;5.30;1.70;;;23.50;99.90;;;;;;5059268;28;20035;-77
2023/07/26 10:42:02;;;;;;;4.90;1.85;;;23.20;99.90;;;;;;5057931;28;20083;-78
2023/07/26 10:44:28;;;;;;;5.80;1.60;;;23.40;99.90;;;;;;5062312;28;20059;-77
2023/07/26 10:46:59;;;;;;;6.40;1.85;;;23.50;99.90;;;;;;5058256;28;20779;-78
2023/07/26 10:49:30;;;;;;;7.00;2.03;;;23.70;99.90;;;;;;5057564;28;20025;-76
2023/07/26 10:52:02;;;;;;;5.68;1.80;;;23.70;99.90;;;;;;5061155;28;20032;-79
2023/07/26 10:54:36;;;;;;;8.05;1.70;;;24.10;99.90;;;;;;5054518;28;20067;-77
2023/07/26 10:57:28;;;;;;;5.72;1.73;;;24.20;99.90;;;;;;5055595;28;20016;-76
2023/07/26 11:00:31;;;;;;;5.43;1.50;;;24.20;99.90;;;;;;5055337;28;20021;-78
2023/07/26 11:03:01;;;;;;;5.22;1.77;;;24.40;99.90;;;;;;5059680;28;20041;-78
2023/07/26 11:05:29;;;;;;;13.45;2.08;;;24.40;99.90;;;;;;5056017;28;20029;-78
2023/07/26 11:07:59;;;;;;;6.35;1.52;;;24.50;99.90;;;;;;5055567;28;20087;-77
2023/07/26 11:10:28;;;;;;;4.85;1.70;;;24.50;99.90;;;;;;5062523;28;20123;-77
2023/07/26 11:13:14;;;;;;;5.90;1.42;;;24.40;99.90;;;;;;5056549;28;20014;-83
2023/07/26 11:15:44;;;;;;;6.45;1.48;;;24.40;99.90;;;;;;5057752;28;20036;-78
2023/07/26 11:18:11;;;;;;;7.63;1.45;;;24.40;99.90;;;;;;5060642;28;20039;-79
2023/07/26 11:20:38;;;;;;;3.20;1.27;;;24.80;99.90;;;;;;5054484;28;20101;-78
2023/07/26 11:23:24;;;;;;;3.47;1.20;;;24.80;99.90;;;;;;5062689;28;20064;-77
2023/07/26 11:25:56;;;;;;;3.22;1.23;;;24.80;99.90;;;;;;5055479;28;20393;-78
2023/07/26 11:28:22;;;;;;;3.10;1.20;;;24.70;99.90;;;;;;5057138;28;20109;-78
2023/07/26 11:30:49;;;;;;;3.33;1.10;;;24.70;99.90;;;;;;5056532;28;20017;-77
2023/07/26 11:33:32;;;;;;;4.30;1.55;;;24.50;99.90;;;;;;5058955;28;20025;-78
2023/07/26 11:36:00;;;;;;;4.18;1.30;;;24.40;99.90;;;;;;5054951;28;20045;-78
2023/07/26 11:38:26;;;;;;;5.10;1.30;;;24.50;99.90;;;;;;5058897;28;20024;-76
2023/07/26 11:40:53;;;;;;;4.38;1.70;;;24.70;99.90;;;;;;5057259;28;20075;-78
2023/07/26 11:43:20;;;;;;;4.55;1.33;;;24.70;99.90;;;;;;5061841;28;20039;-79
2023/07/26 11:45:46;;;;;;;5.47;1.25;;;24.90;99.90;;;;;;5053199;28;20385;-80
2023/07/26 11:48:14;;;;;;;2.72;1.20;;;24.90;99.90;;;;;;5058345;28;20023;-79
2023/07/26 11:50:40;;;;;;;3.03;1.58;;;24.90;99.90;;;;;;5063514;28;20424;-79
2023/07/26 11:53:09;;;;;;;5.47;1.77;;;24.90;99.90;;;;;;5058189;28;20029;-79
2023/07/26 11:55:40;;;;;;;4.97;1.48;;;24.90;99.90;;;;;;5055839;28;20052;-80
2023/07/26 11:58:11;;;;;;;5.28;1.42;;;25.20;99.90;;;;;;5057735;28;20029;-79
2023/07/26 12:00:37;;;;;;;;;;;25.40;99.90;;;;;;5063820;28;20046;-80
2023/07/26 12:03:05;;;;;;;4.20;1.70;;;25.40;99.90;;;;;;5054872;28;19950;-80
2023/07/26 12:05:32;;;;;;;3.03;1.30;;;25.60;99.90;;;;;;5060097;28;20024;-79
2023/07/26 12:07:59;;;;;;;5.88;1.40;;;25.60;99.90;;;;;;5053983;28;20021;-81
2023/07/26 12:10:34;;;;;;;2.63;0.98;;;25.40;99.90;;;;;;5056916;28;20059;-79
2023/07/26 12:13:04;;;;;;;7.00;1.40;;;25.30;99.90;;;;;;5059068;28;20033;-80
2023/07/26 12:15:30;;;;;;;4.03;1.40;;;25.40;99.90;;;;;;5058655;28;20447;-79
2023/07/26 12:18:03;;;;;;;4.15;1.10;;;25.80;99.90;;;;;;5059840;28;20045;-79
2023/07/26 12:20:30;;;;;;;4.68;1.67;;;26.10;99.90;;;;;;5058161;28;20016;-79
2023/07/26 12:22:58;;;;;;;2.63;1.13;;;26.30;99.90;;;;;;5057325;28;20076;-77
2023/07/26 12:25:40;;;;;;;3.30;1.20;;;26.20;99.90;;;;;;5057901;28;20353;-79
2023/07/26 12:28:07;;;;;;;2.28;0.95;;;25.90;99.90;;;;;;5058035;28;20445;-77
2023/07/26 12:30:34;;;;;;;4.63;1.15;;;25.90;99.90;;;;;;5056753;28;20025;-77
2023/07/26 12:33:13;;;;;;;3.83;1.23;;;25.90;99.90;;;;;;5060706;28;20074;-78
2023/07/26 12:35:45;;;;;;;6.55;3.75;;;26.10;99.90;;;;;;5057486;28;20025;-80
2023/07/26 12:38:12;;;;;;;3.63;1.45;;;26.10;99.90;;;;;;5057757;28;20504;-79
2023/07/26 12:40:39;;;;;;;1.88;0.70;;;26.50;99.90;;;;;;5058578;28;20016;-79
2023/07/26 12:43:23;;;;;;;3.42;1.20;;;26.70;99.80;;;;;;5055578;28;20524;-80
2023/07/26 12:45:49;;;;;;;2.65;0.98;;;26.50;99.90;;;;;;5061556;28;20021;-80
2023/07/26 12:48:14;;;;;;;3.75;1.10;;;26.20;99.20;;;;;;5055744;28;20025;-79